Time;durP1;ratioP1;P1;durP2;ratioP2;P2;SDS_P1;SDS_P2;PMS_P1;PMS_P2;Temp;Humidity;BMP_temperature;BMP_pressure;BME280_temperature;BME280_humidity;BME280_pressure;Samples;Min_cycle;Max_cycle;Signal;HPM_P1;HPM_P2
2023/06/30 00:01:28;;;;;;;12.07;6.97;;;;;;;19.00;76.23;150819.31;4954191;28;20786;-63
2023/06/30 00:03:55;;;;;;;13.43;6.93;;;;;;;18.98;76.98;150814.31;4949744;28;20252;-63
2023/06/30 00:06:23;;;;;;;12.03;7.17;;;;;;;18.98;78.33;150814.31;4953710;28;20667;-63
2023/06/30 00:08:52;;;;;;;12.23;6.43;;;;;;;19.00;77.66;150819.31;4946757;28;20588;-63
2023/06/30 00:11:23;;;;;;;11.03;6.67;;;;;;;18.95;77.81;150806.75;4950814;28;20567;-63
2023/06/30 00:13:51;;;;;;;9.33;6.67;;;;;;;18.97;77.44;150811.81;4949365;28;20276;-63
2023/06/30 00:16:23;;;;;;;14.00;6.67;;;;;;;18.92;76.88;150797.97;4950654;28;20325;-63
2023/06/30 00:18:49;;;;;;;12.03;7.13;;;;;;;18.89;77.37;150791.72;4945528;28;20320;-63
2023/06/30 00:21:20;;;;;;;11.10;7.47;;;;;;;18.93;78.77;150800.47;4946375;28;20244;-63
2023/06/30 00:23:46;;;;;;;11.47;7.30;;;;;;;18.92;77.87;150799.25;4945856;28;20597;-63
2023/06/30 00:26:14;;;;;;;10.27;7.37;;;;;;;18.90;77.96;150794.22;4949369;28;20728;-63
2023/06/30 00:28:41;;;;;;;11.88;7.20;;;;;;;18.94;77.16;150804.25;4947220;28;21299;-63
2023/06/30 00:31:08;;;;;;;12.13;6.93;;;;;;;18.92;77.92;150797.97;4944542;28;20244;-63
2023/06/30 00:33:34;;;;;;;10.70;6.80;;;;;;;18.93;77.61;150800.47;4945034;28;20235;-63
2023/06/30 00:36:01;;;;;;;11.07;6.80;;;;;;;18.94;77.44;150804.25;4946693;28;20245;-63
2023/06/30 00:38:28;;;;;;;11.23;6.97;;;;;;;18.95;78.49;150805.47;4950280;28;20314;-63
2023/06/30 00:40:54;;;;;;;10.57;6.93;;;;;;;18.92;77.42;150797.97;4944240;28;20247;-63
2023/06/30 00:43:22;;;;;;;10.00;6.77;;;;;;;18.91;77.49;150795.47;4948651;28;20245;-63
2023/06/30 00:45:49;;;;;;;9.33;6.53;;;;;;;18.87;77.77;150787.94;4945335;28;20239;-63
2023/06/30 00:48:17;;;;;;;10.17;6.77;;;;;;;18.86;79.46;150784.22;4946408;28;20614;-63
2023/06/30 00:50:44;;;;;;;9.87;6.70;;;;;;;18.82;79.70;150774.19;4944716;28;20278;-63
2023/06/30 00:53:11;;;;;;;10.80;6.80;;;;;;;18.88;80.52;150790.44;4951509;28;20233;-63
2023/06/30 00:55:39;;;;;;;10.90;7.23;;;;;;;18.82;79.94;150775.44;4945892;28;20299;-63
2023/06/30 00:58:06;;;;;;;10.73;6.90;;;;;;;18.80;80.22;150770.41;4948418;28;20240;-63
2023/06/30 01:00:34;;;;;;;11.47;6.70;;;;;;;18.82;80.09;150774.19;4946460;28;20230;-59
2023/06/30 01:03:09;;;;;;;11.33;6.83;;;;;;;18.80;80.32;150770.41;4944596;28;20248;-64
2023/06/30 01:05:41;;;;;;;9.50;6.30;;;;;;;18.75;80.95;150757.91;4952154;28;20235;-64
2023/06/30 01:08:16;;;;;;;9.33;7.23;;;;;;;18.78;81.67;150765.41;4962693;28;20243;-64
2023/06/30 01:10:44;;;;;;;10.37;6.90;;;;;;;18.76;81.83;150759.19;4944774;28;20390;-64
2023/06/30 01:13:15;;;;;;;10.63;7.00;;;;;;;18.80;80.19;150769.19;4946471;28;20242;-64
2023/06/30 01:15:44;;;;;;;14.10;7.60;;;;;;;18.78;79.93;150764.19;4943799;28;20234;-64
2023/06/30 01:18:13;;;;;;;14.93;6.90;;;;;;;18.77;80.42;150761.69;4947904;28;20316;-64
2023/06/30 01:20:41;;;;;;;12.33;6.20;;;;;;;18.76;79.95;150759.19;4943637;28;20248;-64
2023/06/30 01:23:13;;;;;;;11.60;7.07;;;;;;;18.74;79.09;150756.66;4948385;28;20233;-64
2023/06/30 01:25:40;;;;;;;11.43;6.90;;;;;;;18.74;79.57;150755.41;4939296;28;20612;-64
2023/06/30 01:28:08;;;;;;;12.83;7.40;;;;;;;18.76;79.98;150760.41;4946404;28;20685;-64
2023/06/30 01:30:36;;;;;;;11.13;7.30;;;;;;;18.81;80.45;150772.94;4947303;28;20236;-64
2023/06/30 01:33:05;;;;;;;11.33;7.37;;;;;;;18.86;80.37;150784.22;4945041;28;20728;-64
2023/06/30 01:35:34;;;;;;;11.20;7.27;;;;;;;18.88;81.12;150789.22;4945508;28;20650;-64
2023/06/30 01:38:02;;;;;;;10.40;7.03;;;;;;;18.87;81.19;150787.94;4945398;28;20273;-64
2023/06/30 01:40:28;;;;;;;10.53;6.73;;;;;;;18.85;81.19;150782.94;4944438;28;20242;-64
2023/06/30 01:42:57;;;;;;;9.10;6.77;;;;;;;18.86;81.11;150785.44;4947271;28;20307;-64
2023/06/30 01:45:25;;;;;;;11.27;7.00;;;;;;;18.88;80.87;150789.22;4951850;28;20237;-64
2023/06/30 01:47:53;;;;;;;11.40;7.10;;;;;;;18.89;80.52;150791.72;4947792;28;20219;-64
2023/06/30 01:50:21;;;;;;;11.47;6.87;;;;;;;18.97;82.11;150811.81;4953913;28;20233;-63
2023/06/30 01:52:48;;;;;;;10.13;7.00;;;;;;;18.98;81.38;150814.31;4951542;28;20230;-63
2023/06/30 01:55:15;;;;;;;14.67;7.23;;;;;;;19.01;81.17;150821.81;4958625;28;20237;-63
2023/06/30 01:57:41;;;;;;;10.57;7.20;;;;;;;19.05;80.45;150829.34;4955357;28;20234;-63
2023/06/30 02:00:09;;;;;;;13.67;7.10;;;;;;;19.09;81.53;150839.31;4965146;28;20245;-63
2023/06/30 02:02:42;;;;;;;11.47;7.13;;;;;;;19.11;81.61;150844.31;4956558;28;20235;-64
2023/06/30 02:05:09;;;;;;;10.83;6.83;;;;;;;19.12;81.62;150846.81;4955274;28;20244;-64
2023/06/30 02:07:38;;;;;;;9.57;6.43;;;;;;;19.15;81.98;150854.34;4952961;28;20231;-63
2023/06/30 02:10:07;;;;;;;14.00;6.37;;;;;;;19.21;79.29;150868.13;4956647;28;20230;-63
2023/06/30 02:12:35;;;;;;;11.60;6.80;;;;;;;19.24;77.79;150876.88;4954702;28;20571;-63
2023/06/30 02:15:02;;;;;;;9.43;6.37;;;;;;;19.21;78.47;150869.34;4972859;28;20233;-63
2023/06/30 02:17:31;;;;;;;12.17;7.00;;;;;;;19.27;79.06;150884.38;4954196;28;20229;-64
2023/06/30 02:19:57;;;;;;;10.63;7.80;;;;;;;19.33;78.75;150899.41;4954983;28;20233;-63
2023/06/30 02:22:24;;;;;;;11.37;7.77;;;;;;;19.32;79.00;150895.69;4960396;28;20240;-64
2023/06/30 02:24:53;;;;;;;11.40;7.60;;;;;;;19.31;78.65;150893.16;4954032;28;20224;-63
2023/06/30 02:27:22;;;;;;;10.57;7.60;;;;;;;19.32;78.84;150896.91;4955167;28;20232;-63
2023/06/30 02:29:49;;;;;;;9.23;6.90;;;;;;;19.26;79.19;150881.88;4957631;28;20225;-64
2023/06/30 02:32:15;;;;;;;11.80;7.50;;;;;;;19.23;79.81;150874.38;4955773;28;20260;-64
2023/06/30 02:34:42;;;;;;;14.30;8.50;;;;;;;19.27;80.33;150884.38;4957557;28;20228;-64
2023/06/30 02:37:08;;;;;;;12.23;8.17;;;;;;;19.24;80.73;150875.63;4973195;28;20299;-64
2023/06/30 02:39:36;;;;;;;11.07;7.40;;;;;;;19.22;80.75;150871.88;4957307;28;20248;-64
2023/06/30 02:42:04;;;;;;;11.60;7.17;;;;;;;19.24;81.12;150876.88;4958322;28;20260;-64
2023/06/30 02:44:31;;;;;;;11.23;7.77;;;;;;;19.21;81.03;150869.34;4957873;28;20226;-64
2023/06/30 02:46:57;;;;;;;12.07;7.80;;;;;;;19.24;81.32;150875.63;4955560;28;20233;-64
2023/06/30 02:49:24;;;;;;;14.07;8.70;;;;;;;19.18;82.21;150861.84;4957108;28;20222;-64
2023/06/30 02:51:51;;;;;;;13.07;8.07;;;;;;;19.20;83.10;150865.63;4953415;28;20223;-63
2023/06/30 02:54:18;;;;;;;11.63;8.17;;;;;;;19.26;83.04;150880.66;4954440;28;20230;-64
2023/06/30 02:56:44;;;;;;;12.50;8.07;;;;;;;19.20;82.72;150865.63;4968348;28;20238;-63
2023/06/30 02:59:12;;;;;;;13.33;8.17;;;;;;;19.19;83.67;150864.34;4952171;28;20574;-63
2023/06/30 03:04:21;;;;;;;10.23;7.80;;;;;;;19.27;83.06;150884.38;5421906;23;20348;-63
2023/06/30 03:06:50;;;;;;;11.43;8.67;;;;;;;19.33;83.33;150898.19;4948742;28;20636;-63
2023/06/30 03:09:17;;;;;;;16.37;9.60;;;;;;;19.31;83.32;150894.41;4955050;28;20782;-63
2023/06/30 03:11:44;;;;;;;12.77;8.57;;;;;;;19.30;82.80;150891.91;4952277;28;20226;-63
2023/06/30 03:14:13;;;;;;;12.73;8.27;;;;;;;19.29;83.49;150889.38;4956150;28;20219;-63
2023/06/30 03:16:44;;;;;;;11.77;8.20;;;;;;;19.29;83.28;150888.16;4951515;28;20313;-63
2023/06/30 03:19:11;;;;;;;12.53;8.10;;;;;;;19.27;83.24;150884.38;4952848;28;20230;-63
2023/06/30 03:21:38;;;;;;;14.63;8.30;;;;;;;19.28;83.07;150885.66;4953251;28;20225;-63
2023/06/30 03:24:05;;;;;;;13.10;8.23;;;;;;;19.25;83.31;150879.38;4957008;28;20261;-63
2023/06/30 03:26:32;;;;;;;12.33;8.00;;;;;;;19.25;83.25;150879.38;4964733;28;20241;-63
2023/06/30 03:29:00;;;;;;;13.43;8.10;;;;;;;19.27;83.40;150883.16;4950269;28;20691;-63
2023/06/30 03:31:28;;;;;;;11.13;8.07;;;;;;;19.25;84.00;150878.16;5193699;23;20230;-64
2023/06/30 03:33:56;;;;;;;11.10;7.90;;;;;;;19.22;83.72;150870.63;4955899;28;20242;-64
2023/06/30 03:36:23;;;;;;;10.80;7.37;;;;;;;19.24;83.48;150875.63;4953757;28;20322;-64
2023/06/30 03:38:50;;;;;;;9.57;7.90;;;;;;;19.27;85.14;150883.16;4952314;28;20229;-64
2023/06/30 03:41:21;;;;;;;12.20;8.17;;;;;;;19.29;84.84;150889.38;4953646;28;20231;-64
2023/06/30 03:43:47;;;;;;;11.13;7.83;;;;;;;19.36;84.83;150904.41;4953085;28;20310;-63
2023/06/30 03:46:15;;;;;;;11.27;8.00;;;;;;;19.38;85.32;150909.44;4952128;28;20217;-63
2023/06/30 03:48:43;;;;;;;10.80;7.47;;;;;;;19.37;85.21;150908.19;4953014;28;20593;-63
2023/06/30 03:51:10;;;;;;;15.27;7.87;;;;;;;19.35;85.44;150901.91;4956714;28;20721;-63
2023/06/30 03:53:36;;;;;;;12.70;7.93;;;;;;;19.29;83.77;150889.38;4950412;28;20248;-63
2023/06/30 03:56:07;;;;;;;12.93;7.63;;;;;;;19.29;83.72;150888.16;4956454;28;20235;-63
2023/06/30 03:58:33;;;;;;;10.63;8.20;;;;;;;19.24;83.69;150876.88;4954666;28;20239;-63
2023/06/30 04:01:00;;;;;;;11.90;7.93;;;;;;;19.22;83.67;150871.88;4954902;28;20342;-63
2023/06/30 04:03:27;;;;;;;15.77;7.87;;;;;;;19.22;84.36;150871.88;4956893;28;20232;-63
2023/06/30 04:05:55;;;;;;;12.10;8.27;;;;;;;19.27;84.91;150884.38;4952146;28;20294;-63
2023/06/30 04:08:22;;;;;;;9.30;7.43;;;;;;;19.28;85.15;150885.66;4958885;28;20580;-63
2023/06/30 04:10:49;;;;;;;10.00;7.23;;;;;;;19.31;84.70;150894.41;4951450;28;20239;-63
2023/06/30 04:13:15;;;;;;;14.37;7.90;;;;;;;19.29;85.06;150889.38;4956195;28;20255;-63
2023/06/30 04:15:42;;;;;;;14.47;7.90;;;;;;;19.29;84.81;150889.38;4956525;28;20227;-63
2023/06/30 04:18:08;;;;;;;11.73;7.37;;;;;;;19.27;84.58;150884.38;4955122;28;20217;-63
2023/06/30 04:20:35;;;;;;;13.27;7.73;;;;;;;19.30;85.36;150891.91;4953797;28;20250;-63
2023/06/30 04:23:03;;;;;;;9.47;7.80;;;;;;;19.31;85.00;150894.41;4956406;28;20229;-63
2023/06/30 04:25:30;;;;;;;12.53;8.70;;;;;;;19.37;84.79;150908.19;4955358;28;20597;-63
2023/06/30 04:27:56;;;;;;;10.47;7.53;;;;;;;19.36;84.24;150904.41;4952660;28;20240;-63
2023/06/30 04:30:23;;;;;;;12.63;8.20;;;;;;;19.38;84.48;150909.44;4957128;28;20232;-63
2023/06/30 04:32:49;;;;;;;13.67;8.20;;;;;;;19.41;84.19;150916.94;4952667;28;20729;-63
2023/06/30 04:35:16;;;;;;;12.93;8.00;;;;;;;19.47;84.00;150931.97;4953940;28;20806;-63
2023/06/30 04:37:44;;;;;;;12.30;8.30;;;;;;;19.50;84.48;150939.47;4952943;28;20240;-63
2023/06/30 04:40:12;;;;;;;10.70;7.90;;;;;;;19.61;84.48;150967.03;4953946;28;20248;-63
2023/06/30 04:42:39;;;;;;;11.53;8.33;;;;;;;19.69;82.86;150984.56;4952367;28;20238;-63
2023/06/30 04:45:07;;;;;;;11.20;8.00;;;;;;;19.77;82.58;151005.84;4954157;28;20588;-63
2023/06/30 04:47:33;;;;;;;14.60;8.27;;;;;;;19.84;82.56;151020.88;4953240;28;20647;-63
2023/06/30 04:50:00;;;;;;;12.83;8.40;;;;;;;19.88;82.47;151032.16;4948485;28;20230;-63
2023/06/30 04:52:26;;;;;;;11.50;8.53;;;;;;;19.95;81.91;151047.25;4954006;28;20244;-63
2023/06/30 04:54:54;;;;;;;13.53;8.63;;;;;;;19.99;81.61;151058.50;4953407;28;20232;-64
2023/06/30 04:57:22;;;;;;;10.60;8.20;;;;;;;20.04;81.20;151069.81;4953434;28;20236;-64
2023/06/30 04:59:50;;;;;;;14.27;9.00;;;;;;;20.08;81.63;151079.81;4952168;28;20235;-64
2023/06/30 05:02:17;;;;;;;14.20;9.77;;;;;;;20.10;81.28;151083.56;4953540;28;20616;-63
2023/06/30 05:04:44;;;;;;;13.37;8.73;;;;;;;20.16;81.93;151098.59;4951896;28;20285;-65
2023/06/30 05:07:10;;;;;;;13.67;8.47;;;;;;;20.13;82.43;151091.06;4954121;28;20241;-62
2023/06/30 05:09:37;;;;;;;13.83;8.33;;;;;;;20.08;82.22;151078.56;4952767;28;20782;-62
2023/06/30 05:12:04;;;;;;;17.23;10.10;;;;;;;20.10;81.61;151083.56;4952831;28;20250;-63
2023/06/30 05:14:32;;;;;;;12.37;8.83;;;;;;;20.08;80.83;151078.56;4957215;28;20231;-63
2023/06/30 05:16:59;;;;;;;13.37;9.20;;;;;;;20.10;80.97;151084.84;4950470;28;20233;-63
2023/06/30 05:19:25;;;;;;;14.13;9.33;;;;;;;20.12;80.38;151088.56;4953342;28;20246;-64
2023/06/30 05:21:52;;;;;;;14.90;8.90;;;;;;;20.11;79.93;151086.06;4952163;28;20705;-64
2023/06/30 05:24:19;;;;;;;12.63;8.27;;;;;;;20.14;80.24;151093.59;4956938;28;20326;-64
2023/06/30 05:26:45;;;;;;;13.30;9.13;;;;;;;20.17;81.50;151102.31;4952609;28;20238;-64
2023/06/30 05:29:12;;;;;;;24.97;13.27;;;;;;;20.23;78.25;151114.84;4954139;28;20228;-64
2023/06/30 05:31:40;;;;;;;22.83;14.57;;;;;;;20.31;77.79;151134.91;4952481;28;20236;-64
2023/06/30 05:34:06;;;;;;;25.73;15.30;;;;;;;20.31;77.42;151134.91;4955920;28;20312;-64
2023/06/30 05:36:33;;;;;;;27.23;16.20;;;;;;;20.27;76.59;151124.88;4955576;28;20291;-64
2023/06/30 05:38:59;;;;;;;28.80;17.27;;;;;;;20.38;76.64;151152.44;4951476;28;20293;-64
2023/06/30 05:41:26;;;;;;;28.50;17.33;;;;;;;20.35;76.43;151144.94;4957108;28;20235;-64
2023/06/30 05:43:52;;;;;;;28.93;18.07;;;;;;;20.30;77.02;151133.69;4954180;28;20235;-63
2023/06/30 05:46:23;;;;;;;25.67;17.37;;;;;;;20.20;78.29;151109.84;4954374;28;20236;-63
2023/06/30 05:48:51;;;;;;;26.33;17.37;;;;;;;20.20;78.83;151109.84;4952182;28;20227;-63
2023/06/30 05:51:23;;;;;;;30.47;15.83;;;;;;;20.25;78.22;151121.16;4955620;28;20238;-64
2023/06/30 05:53:49;;;;;;;25.07;17.47;;;;;;;20.21;79.16;151112.34;4951870;28;20232;-64
2023/06/30 05:56:16;;;;;;;26.77;16.87;;;;;;;20.26;79.33;151122.38;4952832;28;20246;-64
2023/06/30 05:58:42;;;;;;;24.87;16.57;;;;;;;20.19;80.06;151107.34;4951079;28;20226;-64
2023/06/30 06:01:09;;;;;;;31.00;17.53;;;;;;;20.13;81.08;151092.34;4954094;28;20724;-64
2023/06/30 06:03:36;;;;;;;28.60;17.13;;;;;;;20.05;82.46;151072.31;4949038;28;20234;-64
2023/06/30 06:06:04;;;;;;;30.13;19.20;;;;;;;19.93;83.12;151042.25;4954342;28;20231;-64
2023/06/30 06:08:31;;;;;;;29.97;18.07;;;;;;;19.92;84.01;151040.97;4953749;28;20294;-64
2023/06/30 06:10:57;;;;;;;27.17;18.33;;;;;;;19.93;84.51;151043.47;4950692;28;20310;-64
2023/06/30 06:13:34;;;;;;;28.20;18.70;;;;;;;19.90;85.27;151037.22;4951221;28;20229;-64
2023/06/30 06:16:01;;;;;;;30.63;19.07;;;;;;;19.76;87.71;151003.34;4950480;28;20309;-64
2023/06/30 06:18:27;;;;;;;31.70;19.43;;;;;;;19.72;90.57;150992.09;4955056;28;20230;-64
2023/06/30 06:20:54;;;;;;;33.37;20.67;;;;;;;19.59;95.13;150960.81;4950071;28;20231;-64
2023/06/30 06:23:23;;;;;;;37.47;20.83;;;;;;;19.45;98.31;150926.97;4954406;28;20294;-63
2023/06/30 06:25:50;;;;;;;34.43;20.40;;;;;;;19.31;100.00;150894.41;4950908;28;20289;-63
2023/06/30 06:28:17;;;;;;;33.37;20.77;;;;;;;19.20;100.00;150865.63;4956275;28;20224;-63
2023/06/30 06:30:45;;;;;;;31.80;21.07;;;;;;;19.11;100.00;150844.31;4953838;28;20228;-63
2023/06/30 06:33:12;;;;;;;33.07;20.83;;;;;;;19.03;100.00;150825.56;4947400;28;20242;-63
2023/06/30 06:35:38;;;;;;;35.10;20.80;;;;;;;18.84;100.00;150780.44;4954916;28;20255;-63
2023/06/30 06:38:05;;;;;;;36.17;21.77;;;;;;;18.77;100.00;150762.91;4957042;28;20230;-63
2023/06/30 06:40:33;;;;;;;30.23;20.70;;;;;;;18.70;100.00;150745.38;4953563;28;20687;-63
2023/06/30 06:43:00;;;;;;;30.63;19.67;;;;;;;18.69;100.00;150744.16;4955509;28;20281;-61
2023/06/30 06:45:27;;;;;;;27.73;17.63;;;;;;;18.70;100.00;150745.38;4956811;28;20246;-61
2023/06/30 06:48:18;;;;;;;33.27;17.97;;;;;;;18.63;100.00;150727.84;4954861;28;20240;-61
2023/06/30 06:50:44;;;;;;;32.17;18.53;;;;;;;18.51;100.00;150699.09;4952758;28;20225;-62
2023/06/30 06:53:14;;;;;;;27.87;16.17;;;;;;;18.47;100.00;150689.06;4957380;28;20241;-62
2023/06/30 06:55:42;;;;;;;24.77;15.43;;;;;;;18.45;100.00;150685.34;4953222;28;20302;-63
2023/06/30 06:58:09;;;;;;;21.43;13.27;;;;;;;18.48;100.00;150692.84;4957259;28;20229;-63
2023/06/30 07:00:36;;;;;;;17.30;11.73;;;;;;;18.46;100.00;150687.84;4950034;28;20323;-63
2023/06/30 07:03:03;;;;;;;20.43;12.10;;;;;;;18.48;100.00;150691.59;4956147;28;20690;-62
2023/06/30 07:05:31;;;;;;;19.90;12.47;;;;;;;18.52;100.00;150701.59;4956146;28;20807;-63
2023/06/30 07:07:57;;;;;;;17.67;11.73;;;;;;;18.57;100.00;150714.13;4954593;28;20251;-63
2023/06/30 07:10:24;;;;;;;21.57;14.30;;;;;;;18.60;100.00;150721.63;4959309;28;20303;-64
2023/06/30 07:12:53;;;;;;;20.07;13.63;;;;;;;18.49;100.00;150695.38;4956250;28;20235;-64
2023/06/30 07:15:20;;;;;;;22.30;13.63;;;;;;;18.60;100.00;150721.63;4958067;28;20810;-64
2023/06/30 07:17:46;;;;;;;21.60;13.07;;;;;;;18.70;100.00;150746.66;4955078;28;20237;-64
2023/06/30 07:20:13;;;;;;;23.63;13.90;;;;;;;18.73;100.00;150754.16;4957118;28;20239;-64
2023/06/30 07:22:39;;;;;;;24.17;14.20;;;;;;;18.73;100.00;150752.91;4955990;28;20233;-62
2023/06/30 07:25:07;;;;;;;19.33;13.57;;;;;;;18.83;100.00;150776.72;4956531;28;20292;-62
2023/06/30 07:27:33;;;;;;;27.40;17.73;;;;;;;18.67;100.00;150739.16;4955989;28;20724;-62
2023/06/30 07:30:01;;;;;;;31.37;19.83;;;;;;;18.72;100.00;150750.38;4950055;28;20255;-62
2023/06/30 07:32:28;;;;;;;33.73;21.90;;;;;;;18.77;100.00;150761.69;4952823;28;20641;-62
2023/06/30 07:34:54;;;;;;;29.30;18.47;;;;;;;18.70;100.00;150746.66;4952420;28;20306;-64
2023/06/30 07:37:21;;;;;;;30.53;20.20;;;;;;;18.74;100.00;150755.41;4957768;28;20229;-64
2023/06/30 07:39:48;;;;;;;29.90;18.40;;;;;;;18.73;100.00;150752.91;4952742;28;20242;-64
2023/06/30 07:42:14;;;;;;;25.23;17.33;;;;;;;18.77;100.00;150761.69;4956384;28;20377;-64
2023/06/30 07:44:41;;;;;;;27.27;16.93;;;;;;;18.83;100.00;150776.72;4955870;28;20267;-65
2023/06/30 07:47:09;;;;;;;28.03;17.37;;;;;;;18.85;100.00;150782.94;4954344;28;20237;-65
2023/06/30 07:49:35;;;;;;;25.30;16.57;;;;;;;18.87;100.00;150786.72;4955090;28;20597;-65
2023/06/30 07:52:02;;;;;;;28.13;17.30;;;;;;;18.91;100.00;150795.47;4955598;28;20289;-65
2023/06/30 07:54:29;;;;;;;26.23;17.60;;;;;;;18.97;100.00;150810.53;4956873;28;20218;-65
2023/06/30 07:56:55;;;;;;;28.27;16.83;;;;;;;19.08;100.00;150838.06;4951546;28;20242;-62
2023/06/30 07:59:22;;;;;;;25.30;17.27;;;;;;;19.13;100.00;150849.31;4954916;28;20747;-62
2023/06/30 08:01:49;;;;;;;24.40;15.93;;;;;;;19.14;100.00;150851.81;4952446;28;20235;-62
2023/06/30 08:04:18;;;;;;;23.03;14.80;;;;;;;19.14;100.00;150851.81;4957417;28;20641;-62
2023/06/30 08:06:45;;;;;;;20.53;13.90;;;;;;;19.21;100.00;150868.13;4955179;28;20287;-62
2023/06/30 08:09:11;;;;;;;17.67;12.93;;;;;;;19.25;100.00;150878.16;4956005;28;20298;-62
2023/06/30 08:11:38;;;;;;;16.40;12.67;;;;;;;19.27;100.00;150884.38;4949847;28;20601;-62
2023/06/30 08:14:06;;;;;;;17.93;12.77;;;;;;;19.11;100.00;150845.59;4956278;28;20226;-62
2023/06/30 08:16:33;;;;;;;20.43;13.30;;;;;;;19.27;100.00;150883.16;4954504;28;20722;-62
2023/06/30 08:18:59;;;;;;;16.00;12.30;;;;;;;19.43;100.00;150921.94;4954094;28;20230;-62
2023/06/30 08:21:27;;;;;;;16.67;11.70;;;;;;;19.46;100.00;150929.47;4956896;28;20245;-62
2023/06/30 08:23:54;;;;;;;19.43;12.70;;;;;;;19.49;100.00;150935.75;4952429;28;20236;-62
2023/06/30 08:26:23;;;;;;;18.63;12.73;;;;;;;19.64;100.00;150973.28;4954165;28;20228;-62
2023/06/30 08:28:50;;;;;;;18.77;12.73;;;;;;;19.61;100.00;150967.03;4950642;28;20242;-62
2023/06/30 08:31:41;;;;;;;18.43;12.93;;;;;;;19.76;100.00;151002.09;4953236;28;20239;-62
2023/06/30 08:34:10;;;;;;;19.30;13.63;;;;;;;19.61;100.00;150967.03;4956171;28;20704;-62
2023/06/30 08:36:38;;;;;;;22.17;14.20;;;;;;;19.40;100.00;150914.44;4954855;28;20241;-62
2023/06/30 08:39:04;;;;;;;21.27;13.50;;;;;;;19.45;100.00;150928.25;4956564;28;20714;-62
2023/06/30 08:41:32;;;;;;;22.07;15.30;;;;;;;19.31;100.00;150894.41;4957228;28;20241;-62
2023/06/30 08:44:00;;;;;;;20.83;14.50;;;;;;;19.38;100.00;150910.72;4953952;28;20237;-64
2023/06/30 08:46:29;;;;;;;18.93;14.23;;;;;;;19.60;100.00;150963.31;4955883;28;20231;-64
2023/06/30 08:48:56;;;;;;;21.07;14.30;;;;;;;19.75;100.00;150999.59;4952119;28;20259;-64
2023/06/30 08:51:23;;;;;;;22.37;14.53;;;;;;;19.80;100.00;151012.13;4954928;28;20239;-64
2023/06/30 08:53:53;;;;;;;17.70;12.73;;;;;;;19.82;100.00;151015.88;4955103;28;20239;-64
2023/06/30 08:56:25;;;;;;;17.97;12.67;;;;;;;19.86;100.00;151025.88;4953845;28;20232;-64
2023/06/30 08:58:52;;;;;;;17.83;12.43;;;;;;;19.81;100.00;151014.63;4950437;28;20238;-64
2023/06/30 09:01:23;;;;;;;19.93;13.93;;;;;;;19.83;100.00;151019.66;4952901;28;20713;-64
2023/06/30 09:03:50;;;;;;;21.17;13.37;;;;;;;19.90;100.00;151037.22;4951863;28;20227;-64
2023/06/30 09:06:20;;;;;;;24.43;14.77;;;;;;;19.85;100.00;151023.38;4954391;28;20233;-64
2023/06/30 09:08:57;;;;;;;20.67;13.83;;;;;;;19.96;100.00;151049.75;4949945;28;20243;-64
2023/06/30 09:11:25;;;;;;;23.07;14.80;;;;;;;20.02;100.00;151066.03;4957427;28;20247;-64
2023/06/30 09:13:54;;;;;;;20.80;14.43;;;;;;;20.21;100.00;151112.34;4950118;28;20232;-64
2023/06/30 09:16:24;;;;;;;24.87;15.87;;;;;;;20.29;100.00;151129.88;4954582;28;20356;-64
2023/06/30 09:18:50;;;;;;;27.00;16.37;;;;;;;20.44;100.00;151167.47;4953126;28;20233;-64
2023/06/30 09:21:23;;;;;;;24.90;16.27;;;;;;;20.74;100.00;151240.16;4950515;28;20233;-64
2023/06/30 09:23:50;;;;;;;25.07;16.47;;;;;;;20.90;96.67;151277.81;4951854;28;20636;-64
2023/06/30 09:26:21;;;;;;;25.17;16.30;;;;;;;21.08;99.62;151322.94;4955301;28;20329;-64
2023/06/30 09:28:49;;;;;;;24.27;16.00;;;;;;;21.23;96.94;151358.00;4953883;28;20238;-64
2023/06/30 09:31:15;;;;;;;25.80;16.50;;;;;;;21.52;99.21;151429.47;4953575;28;20233;-65
2023/06/30 09:33:47;;;;;;;24.20;16.20;;;;;;;21.64;95.50;151457.09;4952311;28;20251;-64
2023/06/30 09:36:17;;;;;;;23.40;16.57;;;;;;;21.71;95.42;151473.38;4952040;28;20242;-64
2023/06/30 09:38:44;;;;;;;23.97;16.73;;;;;;;21.77;96.54;151489.66;4948538;28;20748;-64
2023/06/30 09:41:21;;;;;;;27.47;17.27;;;;;;;21.84;97.50;151506.00;4958484;28;20236;-64
2023/06/30 09:43:49;;;;;;;25.23;16.00;;;;;;;21.85;97.83;151507.22;4951858;28;20224;-64
2023/06/30 09:46:15;;;;;;;26.17;17.70;;;;;;;21.80;95.31;151495.97;4950260;28;20232;-64
2023/06/30 09:48:43;;;;;;;28.30;18.23;;;;;;;21.55;94.16;151435.72;4950881;28;20232;-64
2023/06/30 09:51:12;;;;;;;25.23;17.97;;;;;;;21.43;94.88;151405.63;4956868;28;20220;-64
2023/06/30 09:53:39;;;;;;;27.00;16.63;;;;;;;21.44;96.58;151409.41;4953944;28;20231;-63
2023/06/30 09:56:07;;;;;;;23.67;16.83;;;;;;;21.37;97.39;151393.09;4954140;28;20234;-64
2023/06/30 09:58:39;;;;;;;26.23;17.47;;;;;;;21.28;96.56;151370.53;4955450;28;20222;-63
2023/06/30 10:01:05;;;;;;;25.03;17.60;;;;;;;21.36;97.72;151390.59;4941594;28;20319;-63
2023/06/30 10:03:32;;;;;;;24.23;17.37;;;;;;;21.38;96.25;151395.59;4955768;28;20912;-63
2023/06/30 10:05:59;;;;;;;25.20;17.30;;;;;;;21.40;97.62;151399.38;4954007;28;20281;-62
2023/06/30 10:08:26;;;;;;;26.93;17.30;;;;;;;21.53;96.52;151431.97;4953824;28;20634;-63
2023/06/30 10:10:54;;;;;;;25.53;17.60;;;;;;;21.90;95.33;151519.75;4954679;28;20239;-63
2023/06/30 10:13:21;;;;;;;25.27;17.13;;;;;;;22.19;92.77;151591.28;4956177;28;20570;-63
2023/06/30 10:15:51;;;;;;;26.07;18.43;;;;;;;22.61;91.96;151691.63;4953874;28;21171;-63
2023/06/30 10:18:19;;;;;;;26.67;19.13;;;;;;;22.64;86.78;151699.16;4954812;28;20605;-63
2023/06/30 10:20:46;;;;;;;26.43;18.17;;;;;;;22.93;89.28;151769.41;4953697;28;20722;-63
2023/06/30 10:23:12;;;;;;;29.03;18.33;;;;;;;23.07;86.29;151804.53;4956876;28;20324;-63
2023/06/30 10:25:40;;;;;;;26.20;18.10;;;;;;;23.25;86.11;151847.25;4951788;28;20235;-63
2023/06/30 10:28:07;;;;;;;27.57;19.17;;;;;;;23.38;84.29;151878.59;4958155;28;20706;-63
2023/06/30 10:30:35;;;;;;;29.13;20.30;;;;;;;23.50;81.29;151907.44;4954698;28;20275;-63
2023/06/30 10:33:03;;;;;;;30.50;19.50;;;;;;;23.49;81.88;151904.94;4951437;28;20234;-64
2023/06/30 10:35:31;;;;;;;25.87;18.30;;;;;;;23.51;80.28;151909.97;4958474;28;20233;-64
2023/06/30 10:37:59;;;;;;;28.03;19.03;;;;;;;23.71;83.07;151960.16;4957636;28;20236;-64
2023/06/30 10:40:27;;;;;;;29.07;18.10;;;;;;;23.75;81.36;151968.97;4958272;28;20230;-64
2023/06/30 10:42:55;;;;;;;30.30;20.20;;;;;;;23.59;79.15;151930.03;4955787;28;20239;-64
2023/06/30 10:45:28;;;;;;;31.30;21.07;;;;;;;23.58;81.25;151927.53;4967743;28;20640;-63
2023/06/30 10:47:54;;;;;;;29.23;18.63;;;;;;;23.92;79.36;152010.38;4966237;28;20255;-64
2023/06/30 10:50:23;;;;;;;30.27;19.50;;;;;;;23.87;75.81;151999.06;4957678;28;20234;-64
2023/06/30 10:52:51;;;;;;;30.13;21.10;;;;;;;23.82;77.37;151986.56;4953572;28;20241;-64
2023/06/30 10:55:21;;;;;;;29.43;21.07;;;;;;;23.82;79.46;151985.28;4955325;28;20238;-64
2023/06/30 10:57:51;;;;;;;34.87;21.47;;;;;;;23.68;82.92;151951.41;4955265;28;20617;-64
2023/06/30 11:00:20;;;;;;;33.10;21.10;;;;;;;23.71;81.95;151960.16;4957266;28;20235;-64
2023/06/30 11:02:50;;;;;;;30.37;21.00;;;;;;;23.64;80.36;151942.59;4953135;28;20781;-64
2023/06/30 11:05:24;;;;;;;32.20;22.43;;;;;;;23.15;80.32;151823.34;4955618;28;20241;-65
2023/06/30 11:07:52;;;;;;;31.73;21.63;;;;;;;23.29;80.35;151857.28;4953441;28;20235;-65
2023/06/30 11:10:35;;;;;;;33.03;20.90;;;;;;;23.21;78.96;151838.41;4953774;28;20261;-65
2023/06/30 11:13:03;;;;;;;28.63;19.73;;;;;;;23.49;80.93;151904.94;4956126;28;20303;-65
2023/06/30 11:15:35;;;;;;;29.90;20.63;;;;;;;23.76;77.39;151970.22;4955891;28;20236;-64
2023/06/30 11:18:03;;;;;;;32.13;19.93;;;;;;;23.90;78.51;152005.34;4950727;28;20233;-65